Time;durP1;ratioP1;P1;durP2;ratioP2;P2;SDS_P1;SDS_P2;PMS_P1;PMS_P2;Temp;Humidity;BMP_temperature;BMP_pressure;BME280_temperature;BME280_humidity;BME280_pressure;Samples;Min_cycle;Max_cycle;Signal;HPM_P1;HPM_P2
2022/04/07 00:01:04;;;;;;;14.03;4.23;;;9.30;99.90;;;;;;5062531;28;20352;-33
2022/04/07 00:03:30;;;;;;;16.23;4.30;;;9.30;99.90;;;;;;5058553;28;20344;-34
2022/04/07 00:05:57;;;;;;;17.73;4.30;;;9.30;99.90;;;;;;5059931;28;20097;-33
2022/04/07 00:08:23;;;;;;;15.77;4.17;;;9.30;99.90;;;;;;5034788;28;20059;-33
2022/04/07 00:10:50;;;;;;;20.73;4.73;;;9.30;99.90;;;;;;5063789;28;20052;-33
2022/04/07 00:13:16;;;;;;;11.63;3.43;;;9.30;99.90;;;;;;5053948;28;20045;-31
2022/04/07 00:15:43;;;;;;;16.87;4.07;;;9.30;99.90;;;;;;5064449;28;20665;-34
2022/04/07 00:18:09;;;;;;;14.23;3.30;;;9.20;99.90;;;;;;5043094;28;20127;-33
2022/04/07 00:20:34;;;;;;;12.70;3.20;;;9.20;99.90;;;;;;5063395;28;20535;-34
2022/04/07 00:23:00;;;;;;;17.40;3.43;;;9.40;99.90;;;;;;5063173;28;20507;-34
2022/04/07 00:25:26;;;;;;;11.00;2.90;;;9.30;99.90;;;;;;5061665;28;20162;-33
2022/04/07 00:27:53;;;;;;;13.33;3.20;;;9.20;99.90;;;;;;5034970;28;20041;-32
2022/04/07 00:30:20;;;;;;;9.60;2.50;;;9.10;99.90;;;;;;5044285;28;20392;-31
2022/04/07 00:32:47;;;;;;;12.20;2.70;;;9.20;99.90;;;;;;5048766;28;20083;-32
2022/04/07 00:35:14;;;;;;;17.50;2.90;;;9.20;99.90;;;;;;5059508;28;20044;-31
2022/04/07 00:37:39;;;;;;;10.17;2.80;;;9.10;99.90;;;;;;5046965;28;20389;-34
2022/04/07 00:40:07;;;;;;;15.30;2.80;;;9.20;99.90;;;;;;5055381;28;20388;-34
2022/04/07 00:42:33;;;;;;;16.07;3.00;;;9.20;99.90;;;;;;5058728;28;20125;-34
2022/04/07 00:44:59;;;;;;;14.47;3.53;;;9.20;99.90;;;;;;5064134;28;20448;-34
2022/04/07 00:47:27;;;;;;;20.80;3.70;;;9.20;99.90;;;;;;5043306;28;20043;-33
2022/04/07 00:49:53;;;;;;;16.03;3.73;;;9.20;99.90;;;;;;5059774;28;20467;-34
2022/04/07 00:52:20;;;;;;;16.10;3.50;;;9.10;99.90;;;;;;5058031;28;20032;-31
2022/04/07 00:54:46;;;;;;;20.53;3.60;;;9.10;99.90;;;;;;5056573;28;20044;-33
2022/04/07 00:57:13;;;;;;;18.77;4.03;;;9.10;99.90;;;;;;5039902;28;20059;-34
2022/04/07 00:59:40;;;;;;;18.27;4.07;;;9.00;99.90;;;;;;5058391;28;20558;-31
2022/04/07 01:02:06;;;;;;;17.27;3.93;;;9.20;99.90;;;;;;5044215;28;20118;-32
2022/04/07 01:04:33;;;;;;;19.83;4.43;;;9.10;99.90;;;;;;5055666;28;20490;-31
2022/04/07 01:06:59;;;;;;;15.57;3.70;;;9.10;99.90;;;;;;5041215;28;20044;-34
2022/04/07 01:09:25;;;;;;;19.00;4.00;;;9.20;99.90;;;;;;5048144;28;20404;-34
2022/04/07 01:11:52;;;;;;;20.97;4.23;;;9.10;99.90;;;;;;5034285;28;20077;-31
2022/04/07 01:14:18;;;;;;;20.33;4.60;;;9.10;99.90;;;;;;5057752;28;20052;-35
2022/04/07 01:16:44;;;;;;;24.80;4.70;;;9.10;99.90;;;;;;5044517;28;20099;-33
2022/04/07 01:19:09;;;;;;;23.43;5.07;;;9.10;99.90;;;;;;5062645;28;20295;-30
2022/04/07 01:21:37;;;;;;;23.30;4.23;;;9.10;99.90;;;;;;5061784;28;20515;-30
2022/04/07 01:24:11;;;;;;;23.17;4.77;;;9.00;99.90;;;;;;5055232;28;20068;-31
2022/04/07 01:26:41;;;;;;;22.90;4.20;;;9.00;99.90;;;;;;5052381;28;20431;-33
2022/04/07 01:29:12;;;;;;;25.87;4.73;;;9.00;99.90;;;;;;5064433;28;20055;-33
2022/04/07 01:31:38;;;;;;;31.27;5.05;;;9.00;99.90;;;;;;5066373;28;20044;-30
2022/04/07 01:34:09;;;;;;;17.83;4.63;;;8.90;99.90;;;;;;5055857;28;20315;-32
2022/04/07 01:36:39;;;;;;;15.38;3.55;;;8.90;99.90;;;;;;5045819;28;20040;-32
2022/04/07 01:39:07;;;;;;;19.30;4.17;;;8.90;99.90;;;;;;5058705;28;20121;-32
2022/04/07 01:41:35;;;;;;;21.40;4.13;;;8.90;99.90;;;;;;5066636;28;20052;-30
2022/04/07 01:44:03;;;;;;;24.27;4.70;;;8.90;99.90;;;;;;5065701;28;20059;-34
2022/04/07 01:46:29;;;;;;;22.23;4.40;;;8.90;99.90;;;;;;5050012;28;20073;-30
2022/04/07 01:48:56;;;;;;;25.50;4.80;;;8.90;99.90;;;;;;5060683;28;20055;-32
2022/04/07 01:51:24;;;;;;;27.17;5.70;;;8.90;99.90;;;;;;5065238;28;20582;-32
2022/04/07 01:53:54;;;;;;;26.77;5.40;;;8.90;99.90;;;;;;5064138;28;20491;-31
2022/04/07 01:56:20;;;;;;;32.83;5.77;;;8.90;99.90;;;;;;5052230;28;20062;-32
2022/04/07 01:58:47;;;;;;;24.77;5.40;;;9.00;99.90;;;;;;5053968;28;20048;-32
2022/04/07 02:01:14;;;;;;;28.37;5.80;;;9.00;99.90;;;;;;5066566;28;20049;-34
2022/04/07 02:03:40;;;;;;;24.70;5.13;;;9.00;99.90;;;;;;5058353;28;20048;-31
2022/04/07 02:06:18;;;;;;;28.77;5.00;;;8.90;99.90;;;;;;5061356;28;20131;-34
2022/04/07 02:08:44;;;;;;;28.80;5.33;;;9.00;99.90;;;;;;5059239;28;20041;-33
2022/04/07 02:11:11;;;;;;;23.73;5.23;;;8.90;99.90;;;;;;5066132;28;20479;-32
2022/04/07 02:13:38;;;;;;;25.87;5.17;;;8.90;99.90;;;;;;5064712;28;20089;-35
2022/04/07 02:16:13;;;;;;;23.50;4.77;;;8.90;99.90;;;;;;5066540;28;20048;-31
2022/04/07 02:18:39;;;;;;;30.17;5.33;;;8.90;99.90;;;;;;5056835;28;20052;-34
2022/04/07 02:21:05;;;;;;;22.97;5.40;;;8.90;99.90;;;;;;5066479;28;20048;-33
2022/04/07 02:23:34;;;;;;;25.33;5.73;;;8.90;99.90;;;;;;5057039;28;20081;-32
2022/04/07 02:26:00;;;;;;;29.83;5.70;;;8.90;99.90;;;;;;5064658;28;20436;-32
2022/04/07 02:28:25;;;;;;;35.60;6.20;;;8.90;99.90;;;;;;5049134;28;20052;-34
2022/04/07 02:30:51;;;;;;;25.10;5.90;;;8.90;99.90;;;;;;5059569;28;20041;-33
2022/04/07 02:33:17;;;;;;;25.83;5.50;;;9.00;99.90;;;;;;5063401;28;20076;-31
2022/04/07 02:35:43;;;;;;;25.77;5.63;;;8.90;99.90;;;;;;5060605;28;20124;-31
2022/04/07 02:38:08;;;;;;;32.50;5.57;;;9.00;99.90;;;;;;5049556;28;20536;-32
2022/04/07 02:40:34;;;;;;;23.90;5.23;;;8.90;99.90;;;;;;5060373;28;20107;-32
2022/04/07 02:43:00;;;;;;;25.63;5.67;;;8.90;99.90;;;;;;5065090;28;20053;-34
2022/04/07 02:45:25;;;;;;;30.30;5.93;;;8.90;99.90;;;;;;5065004;28;20036;-33
2022/04/07 02:47:51;;;;;;;25.00;5.33;;;8.90;99.90;;;;;;5046729;28;20127;-34
2022/04/07 02:50:17;;;;;;;24.43;5.10;;;8.90;99.90;;;;;;5064199;28;20652;-30
2022/04/07 02:52:43;;;;;;;24.47;5.70;;;8.90;99.90;;;;;;5061839;28;20124;-32
2022/04/07 02:55:09;;;;;;;26.03;5.67;;;8.90;99.90;;;;;;5061343;28;20110;-31
2022/04/07 02:57:35;;;;;;;27.70;5.47;;;8.90;99.90;;;;;;5040221;28;20446;-34
2022/04/07 03:00:03;;;;;;;24.43;5.13;;;8.90;99.90;;;;;;5062292;28;20500;-32
2022/04/07 03:02:29;;;;;;;27.83;5.33;;;8.90;99.90;;;;;;5059734;28;20051;-33
2022/04/07 03:04:55;;;;;;;20.87;4.87;;;8.90;99.90;;;;;;5057456;28;20040;-32
2022/04/07 03:07:20;;;;;;;34.50;5.47;;;8.90;99.90;;;;;;5039482;28;20407;-34
2022/04/07 03:09:46;;;;;;;19.57;4.83;;;9.00;99.90;;;;;;5058963;28;20095;-32
2022/04/07 03:12:15;;;;;;;21.47;4.90;;;8.90;99.90;;;;;;5064330;28;20044;-34
2022/04/07 03:14:41;;;;;;;31.57;5.30;;;8.90;99.90;;;;;;5063459;28;20147;-34
2022/04/07 03:17:07;;;;;;;21.97;4.73;;;8.90;99.90;;;;;;5043222;28;20071;-32
2022/04/07 03:19:34;;;;;;;29.00;5.40;;;8.90;99.90;;;;;;5058745;28;20134;-33
2022/04/07 03:21:59;;;;;;;26.53;5.07;;;9.00;99.90;;;;;;5061117;28;20051;-34
2022/04/07 03:24:25;;;;;;;24.73;4.90;;;8.90;99.90;;;;;;5050605;28;20037;-33
2022/04/07 03:26:52;;;;;;;24.00;5.13;;;8.90;99.90;;;;;;5039994;28;20049;-34
2022/04/07 03:29:20;;;;;;;26.27;4.63;;;8.90;99.90;;;;;;5059920;28;20051;-31
2022/04/07 03:31:45;;;;;;;26.00;5.40;;;8.90;99.90;;;;;;5063664;28;20040;-34
2022/04/07 03:34:11;;;;;;;22.57;5.20;;;9.00;99.90;;;;;;5059481;28;20053;-32
2022/04/07 03:36:37;;;;;;;29.30;4.90;;;8.90;99.90;;;;;;5048964;28;20044;-34
2022/04/07 03:39:03;;;;;;;25.87;5.17;;;9.00;99.90;;;;;;5059705;28;20056;-32
2022/04/07 03:41:29;;;;;;;23.77;4.97;;;9.00;99.90;;;;;;5062817;28;20135;-32
2022/04/07 03:43:58;;;;;;;27.17;5.70;;;9.10;99.90;;;;;;5062349;28;20435;-33
2022/04/07 03:46:24;;;;;;;22.13;4.50;;;9.10;99.90;;;;;;5047057;28;20051;-34
2022/04/07 03:48:49;;;;;;;24.83;5.60;;;9.10;99.90;;;;;;5055119;28;20045;-34
2022/04/07 03:51:19;;;;;;;25.00;5.20;;;9.10;99.90;;;;;;5063465;28;20093;-33
2022/04/07 03:53:45;;;;;;;24.60;4.87;;;9.30;99.90;;;;;;5062928;28;20090;-33
2022/04/07 03:56:11;;;;;;;26.43;5.70;;;9.10;99.90;;;;;;5054341;28;20099;-33
2022/04/07 03:58:37;;;;;;;27.63;5.37;;;9.20;99.90;;;;;;5046843;28;20110;-32
2022/04/07 04:01:04;;;;;;;22.80;5.70;;;9.10;99.90;;;;;;5060286;28;20045;-36
2022/04/07 04:03:29;;;;;;;29.20;6.30;;;9.10;99.90;;;;;;5044311;28;20126;-36
2022/04/07 04:05:55;;;;;;;25.13;6.07;;;9.10;99.90;;;;;;5060644;28;20496;-33
2022/04/07 04:08:21;;;;;;;28.63;6.13;;;9.10;99.90;;;;;;5040456;28;20376;-33
2022/04/07 04:10:47;;;;;;;25.10;5.80;;;9.00;99.90;;;;;;5062940;28;20094;-35
2022/04/07 04:13:12;;;;;;;28.63;6.33;;;9.00;99.90;;;;;;5061427;28;20551;-34
2022/04/07 04:15:38;;;;;;;27.83;5.60;;;9.00;99.90;;;;;;5062190;28;20507;-35
2022/04/07 04:18:04;;;;;;;30.30;6.23;;;8.90;99.90;;;;;;5047326;28;20048;-31
2022/04/07 04:20:30;;;;;;;27.33;6.33;;;8.90;99.90;;;;;;5058746;28;20083;-34
2022/04/07 04:22:56;;;;;;;33.90;6.80;;;8.90;99.90;;;;;;5063110;28;20123;-31
2022/04/07 04:25:22;;;;;;;25.37;5.87;;;8.90;99.90;;;;;;5048918;28;20119;-34
2022/04/07 04:27:48;;;;;;;29.57;6.83;;;8.80;99.90;;;;;;5043902;28;20056;-32
2022/04/07 04:30:15;;;;;;;32.90;6.77;;;8.80;99.90;;;;;;5059311;28;20036;-33
2022/04/07 04:32:43;;;;;;;28.20;6.27;;;8.90;99.90;;;;;;5058988;28;20044;-35
2022/04/07 04:35:10;;;;;;;35.83;6.93;;;8.80;99.90;;;;;;5059348;28;20503;-33
2022/04/07 04:37:36;;;;;;;31.57;6.17;;;8.90;99.90;;;;;;5040424;28;20045;-32
2022/04/07 04:40:03;;;;;;;28.83;6.63;;;8.80;99.90;;;;;;5049849;28;20139;-35
2022/04/07 04:42:29;;;;;;;34.93;6.10;;;8.80;99.90;;;;;;5048205;28;20434;-31
2022/04/07 04:44:54;;;;;;;37.10;7.57;;;8.80;99.90;;;;;;5049809;28;20040;-34
2022/04/07 04:47:20;;;;;;;33.90;7.10;;;8.80;99.90;;;;;;5040533;28;20114;-35
2022/04/07 04:49:45;;;;;;;30.47;7.23;;;8.70;99.90;;;;;;5053933;28;20132;-32
2022/04/07 04:52:12;;;;;;;34.87;7.77;;;8.80;99.90;;;;;;5048089;28;20131;-36
2022/04/07 04:54:38;;;;;;;37.80;7.47;;;8.80;99.90;;;;;;5059512;28;20328;-32
2022/04/07 04:57:05;;;;;;;35.27;8.87;;;8.70;99.90;;;;;;5045631;28;20642;-34
2022/04/07 04:59:30;;;;;;;43.00;7.10;;;8.70;99.90;;;;;;5054380;28;20491;-31
2022/04/07 05:01:56;;;;;;;39.50;7.53;;;8.70;99.90;;;;;;5052628;28;20086;-34
2022/04/07 05:04:22;;;;;;;33.87;7.43;;;8.70;99.90;;;;;;5059981;28;20090;-33
2022/04/07 05:06:47;;;;;;;35.33;7.07;;;8.70;99.90;;;;;;5040578;28;20036;-32
2022/04/07 05:09:13;;;;;;;38.83;7.40;;;8.60;99.90;;;;;;5025038;28;20503;-32
2022/04/07 05:11:39;;;;;;;44.80;7.77;;;8.60;99.90;;;;;;5062562;28;20044;-34
2022/04/07 05:14:04;;;;;;;29.43;6.70;;;8.70;99.90;;;;;;5062928;28;20499;-32
2022/04/07 05:16:30;;;;;;;32.73;7.27;;;8.60;99.90;;;;;;5040072;28;20500;-34
2022/04/07 05:18:56;;;;;;;32.30;7.00;;;8.60;99.90;;;;;;5053652;28;20170;-33
2022/04/07 05:21:22;;;;;;;24.57;5.03;;;8.60;99.90;;;;;;5053771;28;20054;-33
2022/04/07 05:23:47;;;;;;;21.17;3.90;;;8.50;99.90;;;;;;5053295;28;20056;-31
2022/04/07 05:26:13;;;;;;;13.20;3.37;;;8.40;99.90;;;;;;5052825;28;20125;-35
2022/04/07 05:28:40;;;;;;;14.43;2.80;;;8.30;99.90;;;;;;5049104;28;20117;-33
2022/04/07 05:31:06;;;;;;;12.47;3.30;;;8.10;99.90;;;;;;5063386;28;20041;-34
2022/04/07 05:33:32;;;;;;;17.23;3.10;;;7.90;99.90;;;;;;5060403;28;20044;-32
2022/04/07 05:35:58;;;;;;;18.03;3.37;;;7.70;99.90;;;;;;5058078;28;20149;-31
2022/04/07 05:38:24;;;;;;;18.73;3.23;;;7.60;99.90;;;;;;5036671;28;20468;-32
2022/04/07 05:40:50;;;;;;;13.70;3.40;;;7.40;99.90;;;;;;5060206;28;20098;-35
2022/04/07 05:43:16;;;;;;;15.23;3.53;;;7.40;99.90;;;;;;5058242;28;20072;-32
2022/04/07 05:45:44;;;;;;;13.20;2.70;;;7.30;99.90;;;;;;5062025;28;20056;-35
2022/04/07 05:48:10;;;;;;;12.80;2.37;;;7.20;99.90;;;;;;5045826;28;20044;-34
2022/04/07 05:50:36;;;;;;;8.40;1.90;;;7.20;99.90;;;;;;5061759;28;20105;-35
2022/04/07 05:53:01;;;;;;;11.17;1.90;;;7.20;99.90;;;;;;5058583;28;20090;-33
2022/04/07 05:55:27;;;;;;;7.20;1.17;;;7.10;99.90;;;;;;5061880;28;20488;-32
2022/04/07 05:57:53;;;;;;;10.07;1.50;;;7.00;99.90;;;;;;5034616;28;20053;-34
2022/04/07 06:00:18;;;;;;;5.27;1.00;;;6.90;99.90;;;;;;5059590;28;20048;-31
2022/04/07 06:02:46;;;;;;;5.90;1.37;;;6.80;99.90;;;;;;5061946;28;20098;-31
2022/04/07 06:05:16;;;;;;;8.73;1.80;;;6.70;99.90;;;;;;5062117;28;20041;-31
2022/04/07 06:07:42;;;;;;;14.70;1.60;;;6.60;99.90;;;;;;5040903;28;20097;-33
2022/04/07 06:10:08;;;;;;;8.27;1.70;;;6.50;99.90;;;;;;5062804;28;20040;-30
2022/04/07 06:12:34;;;;;;;8.93;1.87;;;6.50;99.90;;;;;;5063214;28;20462;-31
2022/04/07 06:15:00;;;;;;;10.90;2.07;;;6.50;99.90;;;;;;5062137;28;20070;-31
2022/04/07 06:17:36;;;;;;;7.10;1.47;;;6.40;99.90;;;;;;5038512;28;20056;-35
2022/04/07 06:20:03;;;;;;;8.90;1.60;;;6.30;99.90;;;;;;5049116;28;20041;-33
2022/04/07 06:22:29;;;;;;;6.63;1.67;;;6.30;99.90;;;;;;5045241;28;20067;-31
2022/04/07 06:24:54;;;;;;;6.03;1.20;;;6.20;99.90;;;;;;5061029;28;20041;-32
2022/04/07 06:27:20;;;;;;;7.50;1.50;;;6.20;99.90;;;;;;5042492;28;20488;-34
2022/04/07 06:29:46;;;;;;;4.17;0.77;;;6.20;99.90;;;;;;5049029;28;20037;-34
2022/04/07 06:32:11;;;;;;;5.53;1.50;;;6.10;99.90;;;;;;5060212;28;20691;-32
2022/04/07 06:34:37;;;;;;;9.83;1.23;;;6.10;99.90;;;;;;5055143;28;20044;-32
2022/04/07 06:37:03;;;;;;;6.53;1.10;;;6.10;99.90;;;;;;5037733;28;20041;-32
2022/04/07 06:39:28;;;;;;;6.00;1.23;;;6.00;99.90;;;;;;5042132;28;20041;-35
2022/04/07 06:41:54;;;;;;;3.73;1.07;;;6.00;99.90;;;;;;5048949;28;20056;-31
2022/04/07 06:44:20;;;;;;;3.60;0.83;;;6.00;99.90;;;;;;5058022;28;20557;-33
2022/04/07 06:46:46;;;;;;;6.03;0.90;;;6.10;99.90;;;;;;5035197;28;20090;-35
2022/04/07 06:49:11;;;;;;;3.60;0.77;;;5.90;99.90;;;;;;5057077;28;20052;-34
2022/04/07 06:51:37;;;;;;;4.43;0.70;;;5.90;99.90;;;;;;5057952;28;20040;-33
2022/04/07 06:54:03;;;;;;;7.37;1.23;;;5.90;99.90;;;;;;5053937;28;20220;-34
2022/04/07 06:56:28;;;;;;;4.93;1.17;;;5.90;99.90;;;;;;5039418;28;20071;-35
2022/04/07 06:58:54;;;;;;;4.10;0.87;;;5.90;99.90;;;;;;5057226;28;20160;-33
2022/04/07 07:01:20;;;;;;;5.03;0.80;;;5.90;99.90;;;;;;5061344;28;20488;-34
2022/04/07 07:03:46;;;;;;;5.23;1.10;;;5.90;99.90;;;;;;5060379;28;20046;-33
2022/04/07 07:06:12;;;;;;;5.53;0.97;;;5.90;99.90;;;;;;5053090;28;20045;-35
2022/04/07 07:08:40;;;;;;;7.30;1.30;;;5.70;99.90;;;;;;5048347;28;20041;-34
2022/04/07 07:11:06;;;;;;;5.53;0.87;;;5.90;99.90;;;;;;5060105;28;20256;-33
2022/04/07 07:13:33;;;;;;;4.77;0.70;;;6.00;99.90;;;;;;5024144;28;20064;-31
2022/04/07 07:15:58;;;;;;;5.37;0.80;;;6.00;99.90;;;;;;5045323;28;20048;-34
2022/04/07 07:18:24;;;;;;;6.50;1.20;;;6.00;99.90;;;;;;5028339;28;20048;-34
2022/04/07 07:20:50;;;;;;;6.10;1.40;;;5.90;99.90;;;;;;5051343;28;20059;-31
2022/04/07 07:23:16;;;;;;;6.53;1.50;;;6.00;99.90;;;;;;5046530;28;20435;-34
2022/04/07 07:25:41;;;;;;;4.13;0.73;;;6.00;99.90;;;;;;5053090;28;20040;-35
2022/04/07 07:28:09;;;;;;;3.17;0.70;;;6.10;99.90;;;;;;5033586;28;20048;-36
2022/04/07 07:30:34;;;;;;;6.93;1.20;;;6.10;99.90;;;;;;5048448;28;20052;-33
2022/04/07 07:33:02;;;;;;;5.07;0.87;;;6.10;99.90;;;;;;5049166;28;20040;-32
2022/04/07 07:35:28;;;;;;;7.17;1.33;;;6.10;99.90;;;;;;5049769;28;20060;-32
2022/04/07 07:37:54;;;;;;;6.53;0.87;;;6.10;99.90;;;;;;5035152;28;20129;-33
2022/04/07 07:40:23;;;;;;;8.43;1.10;;;6.20;99.90;;;;;;5048426;28;20064;-34
2022/04/07 07:42:52;;;;;;;10.70;1.30;;;6.20;99.90;;;;;;5050602;28;20055;-31
2022/04/07 07:45:18;;;;;;;6.73;0.93;;;6.10;99.90;;;;;;5047329;28;20064;-32
2022/04/07 07:47:44;;;;;;;5.23;0.83;;;6.20;99.90;;;;;;5035510;28;20523;-32
2022/04/07 07:50:10;;;;;;;3.70;1.07;;;6.20;99.90;;;;;;5047935;28;20037;-34
2022/04/07 07:52:36;;;;;;;7.57;1.20;;;6.20;99.90;;;;;;5049388;28;20091;-34
2022/04/07 07:55:02;;;;;;;11.10;1.23;;;6.30;99.90;;;;;;5051240;28;20515;-34
2022/04/07 07:57:28;;;;;;;9.63;1.20;;;6.30;99.90;;;;;;5031115;28;20408;-34
2022/04/07 07:59:54;;;;;;;9.37;1.80;;;6.40;99.90;;;;;;5054554;28;20109;-30
2022/04/07 08:02:20;;;;;;;10.93;1.70;;;6.40;99.90;;;;;;5046887;28;20542;-31
2022/04/07 08:04:46;;;;;;;7.40;1.77;;;6.50;99.90;;;;;;5052095;28;20476;-31
2022/04/07 08:07:12;;;;;;;8.67;1.67;;;6.60;99.90;;;;;;5031323;28;20044;-33
2022/04/07 08:09:37;;;;;;;12.67;1.60;;;6.70;99.90;;;;;;5054100;28;20385;-34
2022/04/07 08:12:04;;;;;;;8.97;1.70;;;6.80;99.90;;;;;;5050657;28;20113;-33
2022/04/07 08:14:30;;;;;;;8.87;1.50;;;6.90;99.90;;;;;;5048176;28;20163;-33
2022/04/07 08:16:56;;;;;;;9.47;1.47;;;7.00;99.90;;;;;;5032274;28;20076;-34
2022/04/07 08:19:22;;;;;;;8.17;1.50;;;7.10;99.90;;;;;;5047053;28;20524;-31
2022/04/07 08:21:48;;;;;;;8.37;1.73;;;7.10;99.90;;;;;;5046679;28;20053;-32
2022/04/07 08:24:16;;;;;;;9.80;1.77;;;7.20;99.90;;;;;;5044332;28;20049;-32
2022/04/07 08:26:42;;;;;;;5.67;1.37;;;7.30;99.90;;;;;;5034726;28;20049;-34
2022/04/07 08:29:08;;;;;;;9.53;1.60;;;7.40;99.90;;;;;;5047241;28;20040;-34
2022/04/07 08:31:34;;;;;;;8.33;1.27;;;7.50;99.90;;;;;;5047043;28;20099;-33
2022/04/07 08:34:00;;;;;;;6.53;1.40;;;7.50;99.90;;;;;;5034701;28;20047;-32
2022/04/07 08:36:26;;;;;;;9.77;1.63;;;7.60;99.90;;;;;;5038803;28;20509;-33
2022/04/07 08:38:51;;;;;;;8.37;1.53;;;7.70;99.90;;;;;;5041421;28;20044;-33
2022/04/07 08:41:18;;;;;;;9.37;1.50;;;7.70;99.90;;;;;;5043972;28;20056;-34
2022/04/07 08:43:44;;;;;;;7.57;1.90;;;7.80;99.90;;;;;;5043698;28;20045;-36
2022/04/07 08:46:13;;;;;;;9.77;1.37;;;8.00;99.90;;;;;;5040958;28;20399;-34
2022/04/07 08:48:43;;;;;;;15.20;2.23;;;8.00;99.90;;;;;;5038713;28;20097;-33
2022/04/07 08:51:10;;;;;;;7.03;1.37;;;8.00;99.90;;;;;;5047441;28;20553;-34
2022/04/07 08:53:37;;;;;;;5.97;1.30;;;8.10;99.90;;;;;;5046281;28;20502;-35
2022/04/07 08:56:04;;;;;;;10.17;1.63;;;8.20;99.90;;;;;;5047571;28;20056;-31
2022/04/07 08:58:30;;;;;;;10.73;1.77;;;8.30;99.90;;;;;;5029837;28;20045;-35
2022/04/07 09:00:56;;;;;;;11.47;1.67;;;8.30;99.90;;;;;;5044946;28;20078;-32
2022/04/07 09:03:22;;;;;;;10.60;1.60;;;8.40;99.90;;;;;;5046793;28;20044;-32
2022/04/07 09:05:59;;;;;;;11.77;2.30;;;8.50;99.90;;;;;;5041794;28;20227;-33
2022/04/07 09:08:35;;;;;;;11.27;1.57;;;8.60;99.90;;;;;;5024858;28;20056;-34
2022/04/07 09:11:03;;;;;;;10.70;1.80;;;8.60;99.90;;;;;;5041416;28;20408;-35
2022/04/07 09:13:31;;;;;;;9.33;1.80;;;8.70;99.90;;;;;;5038800;28;20041;-34
2022/04/07 09:15:58;;;;;;;12.03;2.00;;;8.80;99.90;;;;;;5050857;28;20041;-35
2022/04/07 09:18:24;;;;;;;10.40;2.13;;;8.80;99.90;;;;;;5029948;28;20105;-34
2022/04/07 09:20:50;;;;;;;11.27;2.57;;;9.00;99.90;;;;;;5045955;28;20056;-33
2022/04/07 09:23:17;;;;;;;10.67;2.20;;;9.00;99.90;;;;;;5048743;28;20542;-32
2022/04/07 09:25:49;;;;;;;10.13;2.20;;;9.00;99.90;;;;;;5045480;28;20068;-34
2022/04/07 09:28:25;;;;;;;9.80;2.13;;;9.00;99.90;;;;;;5034120;28;20068;-36
2022/04/07 09:30:50;;;;;;;12.43;2.10;;;9.00;99.90;;;;;;5052811;28;20047;-34
2022/04/07 09:33:21;;;;;;;9.10;2.20;;;9.10;99.90;;;;;;5048603;28;20405;-36
2022/04/07 09:36:00;;;;;;;11.57;2.47;;;9.10;99.90;;;;;;5050114;28;20052;-37
2022/04/07 09:38:27;;;;;;;13.70;2.50;;;9.10;99.90;;;;;;5033434;28;20095;-36
2022/04/07 09:40:53;;;;;;;9.30;1.80;;;9.10;99.90;;;;;;5039636;28;20064;-36
2022/04/07 09:43:21;;;;;;;8.70;2.20;;;9.20;99.90;;;;;;5046693;28;20053;-37
2022/04/07 09:45:47;;;;;;;10.37;2.00;;;9.10;99.90;;;;;;5043485;28;20052;-32
2022/04/07 09:48:18;;;;;;;14.17;2.73;;;9.10;99.90;;;;;;5033570;28;20048;-33
2022/04/07 09:51:04;;;;;;;16.03;2.63;;;9.10;99.90;;;;;;5051991;28;20156;-33
2022/04/07 09:53:37;;;;;;;15.13;2.97;;;9.10;99.90;;;;;;5033178;28;20053;-34
2022/04/07 09:56:07;;;;;;;16.50;2.87;;;9.10;99.90;;;;;;5051280;28;20175;-34
2022/04/07 09:58:34;;;;;;;11.07;2.53;;;9.10;99.90;;;;;;5033995;28;20045;-31
2022/04/07 10:01:02;;;;;;;13.17;2.57;;;9.10;99.90;;;;;;5048849;28;20547;-32
2022/04/07 10:03:30;;;;;;;13.53;2.40;;;9.10;99.90;;;;;;5051869;28;20183;-34
2022/04/07 10:05:59;;;;;;;10.00;2.23;;;9.10;99.90;;;;;;5054355;28;20537;-34
2022/04/07 10:08:26;;;;;;;11.87;2.27;;;9.00;99.90;;;;;;5036148;28;20079;-32
2022/04/07 10:10:53;;;;;;;21.67;3.20;;;9.00;99.90;;;;;;5051183;28;20347;-32
2022/04/07 10:13:20;;;;;;;13.70;2.70;;;9.10;99.90;;;;;;5050309;28;20045;-32
2022/04/07 10:15:47;;;;;;;10.17;2.60;;;9.10;99.90;;;;;;5051581;28;20091;-33
2022/04/07 10:18:29;;;;;;;12.60;2.40;;;9.20;99.90;;;;;;5032725;28;20056;-35
2022/04/07 10:20:58;;;;;;;15.53;2.70;;;9.20;99.90;;;;;;5051725;28;20050;-33
2022/04/07 10:23:47;;;;;;;11.50;2.73;;;9.10;99.90;;;;;;5046773;28;20105;-31
2022/04/07 10:26:14;;;;;;;11.27;2.10;;;9.10;99.90;;;;;;5034354;28;20381;-34
2022/04/07 10:28:40;;;;;;;9.93;2.37;;;8.90;99.90;;;;;;5037693;28;20053;-30
2022/04/07 10:31:14;;;;;;;7.50;2.00;;;8.70;99.90;;;;;;5045335;28;20044;-33
2022/04/07 10:33:45;;;;;;;12.73;2.17;;;8.40;99.90;;;;;;5050106;28;20040;-35
2022/04/07 10:36:40;;;;;;;12.02;2.40;;;8.30;99.90;;;;;;5036214;28;20140;-33
2022/04/07 10:39:15;;;;;;;13.80;2.63;;;8.20;99.90;;;;;;5052928;28;20037;-30
2022/04/07 10:41:41;;;;;;;14.20;3.10;;;8.20;99.90;;;;;;5055536;28;20057;-33
2022/04/07 10:44:15;;;;;;;12.53;3.07;;;8.10;99.90;;;;;;5051659;28;20411;-34
2022/04/07 10:46:41;;;;;;;18.50;3.50;;;8.20;99.90;;;;;;5036668;28;20770;-34
2022/04/07 10:49:10;;;;;;;16.27;3.00;;;8.20;99.90;;;;;;5044610;28;20048;-33
2022/04/07 10:51:56;;;;;;;18.00;3.47;;;8.20;99.90;;;;;;5050770;28;20131;-34
2022/04/07 10:54:24;;;;;;;20.20;3.37;;;8.30;99.90;;;;;;5044326;28;20527;-34
2022/04/07 10:56:51;;;;;;;14.37;3.20;;;8.50;99.90;;;;;;5029238;28;20560;-33
2022/04/07 10:59:17;;;;;;;19.63;3.33;;;8.50;99.90;;;;;;5049661;28;20041;-31
2022/04/07 11:01:43;;;;;;;14.43;3.50;;;8.60;99.90;;;;;;5045261;28;20055;-31
2022/04/07 11:04:20;;;;;;;14.77;3.27;;;8.70;99.90;;;;;;5047147;28;20072;-34
2022/04/07 11:09:53;;;;;;;16.77;3.40;;;8.70;99.90;;;;;;5045375;28;20049;-34
2022/04/07 11:12:33;;;;;;;17.60;3.70;;;8.70;99.90;;;;;;5042467;28;20574;-32
2022/04/07 11:15:02;;;;;;;12.23;3.13;;;8.70;99.90;;;;;;5028996;28;20106;-33
2022/04/07 11:17:38;;;;;;;17.80;3.50;;;8.80;99.90;;;;;;5025601;28;20049;-34
2022/04/07 11:20:15;;;;;;;19.57;3.63;;;8.90;99.90;;;;;;5049970;28;20040;-35
2022/04/07 11:22:56;;;;;;;13.97;3.00;;;9.10;99.90;;;;;;5046759;28;20052;-34
2022/04/07 11:25:37;;;;;;;17.00;3.45;;;9.10;99.90;;;;;;5047871;28;20060;-35
2022/04/07 11:28:22;;;;;;;18.10;3.38;;;9.10;99.90;;;;;;5033789;28;20047;-33
2022/04/07 11:31:04;;;;;;;15.17;3.13;;;9.10;99.90;;;;;;5049276;28;20681;-35
2022/04/07 11:33:39;;;;;;;17.37;3.40;;;9.20;99.90;;;;;;5048574;28;20109;-35
2022/04/07 11:36:07;;;;;;;15.20;3.40;;;9.00;99.90;;;;;;5049877;28;20044;-34
2022/04/07 11:38:54;;;;;;;16.47;3.93;;;9.10;99.90;;;;;;5037400;28;20056;-35
2022/04/07 11:41:20;;;;;;;19.60;3.83;;;9.20;99.90;;;;;;5046518;28;20068;-32
2022/04/07 11:43:50;;;;;;;16.43;3.93;;;9.20;99.90;;;;;;5047180;28;20507;-32
2022/04/07 11:46:25;;;;;;;17.30;3.38;;;9.20;99.90;;;;;;5036610;28;20288;-34
2022/04/07 11:48:52;;;;;;;16.23;3.23;;;9.20;99.90;;;;;;5044189;28;20048;-33
2022/04/07 11:51:17;;;;;;;15.57;3.10;;;9.30;99.90;;;;;;5048799;28;20041;-35
2022/04/07 11:53:52;;;;;;;17.40;2.60;;;9.40;99.90;;;;;;5046006;28;20045;-33
2022/04/07 11:56:25;;;;;;;17.87;3.33;;;9.40;99.90;;;;;;5039731;28;20055;-35
2022/04/07 11:59:02;;;;;;;18.37;3.20;;;9.50;99.90;;;;;;5043903;28;20076;-35
2022/04/07 12:01:31;;;;;;;10.33;2.40;;;9.50;99.90;;;;;;5049592;28;20049;-33
2022/04/07 12:04:00;;;;;;;12.07;3.10;;;9.50;99.90;;;;;;5047487;28;20055;-32
2022/04/07 12:06:30;;;;;;;17.20;2.83;;;9.50;99.90;;;;;;5038502;28;20575;-35
2022/04/07 12:08:57;;;;;;;13.45;2.63;;;9.40;99.90;;;;;;5044847;28;20048;-35
2022/04/07 12:11:24;;;;;;;11.00;2.87;;;9.50;99.90;;;;;;5049522;28;20075;-32
2022/04/07 12:13:51;;;;;;;12.50;2.80;;;9.50;99.90;;;;;;5047956;28;20052;-33
2022/04/07 12:16:18;;;;;;;18.67;3.07;;;9.50;99.90;;;;;;5033666;28;20044;-34
2022/04/07 12:19:07;;;;;;;13.03;2.77;;;9.60;99.90;;;;;;5042169;28;20116;-35
2022/04/07 12:21:56;;;;;;;12.63;3.10;;;9.60;99.90;;;;;;5042432;28;21138;-32
2022/04/07 12:24:25;;;;;;;11.37;2.60;;;9.40;99.90;;;;;;5045759;28;20542;-32
2022/04/07 12:26:52;;;;;;;8.43;2.33;;;9.00;99.90;;;;;;5039647;28;21000;-32
2022/04/07 12:29:30;;;;;;;11.80;2.40;;;8.70;99.90;;;;;;5047195;28;20065;-32
2022/04/07 12:31:59;;;;;;;4.80;1.13;;;8.50;99.90;;;;;;5046818;28;20201;-34
2022/04/07 12:34:25;;;;;;;4.20;1.03;;;8.30;99.90;;;;;;5049608;28;20198;-33
2022/04/07 12:36:52;;;;;;;7.03;1.40;;;8.10;99.90;;;;;;5033766;28;20614;-34
2022/04/07 12:39:17;;;;;;;6.60;1.70;;;8.10;99.90;;;;;;5039492;28;21022;-31
2022/04/07 12:41:54;;;;;;;12.63;2.53;;;8.00;99.90;;;;;;5046441;28;20056;-31
2022/04/07 12:44:22;;;;;;;15.20;2.90;;;8.10;99.90;;;;;;5045329;28;20169;-33
2022/04/07 12:46:55;;;;;;;16.37;3.17;;;8.20;99.90;;;;;;5027503;28;20464;-33
2022/04/07 12:49:27;;;;;;;14.70;2.97;;;8.40;99.90;;;;;;5044139;28;20037;-34
2022/04/07 12:52:06;;;;;;;16.97;3.30;;;8.50;99.90;;;;;;5055154;28;20234;-30
2022/04/07 12:54:33;;;;;;;14.43;3.40;;;8.70;99.90;;;;;;5049632;28;20150;-34
2022/04/07 12:57:10;;;;;;;18.00;3.30;;;8.80;99.90;;;;;;5032754;28;20504;-31